Time;durP1;ratioP1;P1;durP2;ratioP2;P2;SDS_P1;SDS_P2;PMS_P1;PMS_P2;Temp;Humidity;BMP_temperature;BMP_pressure;BME280_temperature;BME280_humidity;BME280_pressure;Samples;Min_cycle;Max_cycle;Signal;HPM_P1;HPM_P2
2022/06/12 00:01:15;;;;;;;;;;;25.20;43.50;;;;;;1611278;72;627;-58
2022/06/12 00:03:18;;;;;;;;;;;25.10;43.70;;;;;;1613243;72;760;-60
2022/06/12 00:05:20;;;;;;;;;;;25.10;43.70;;;;;;1615533;72;636;-60
2022/06/12 00:07:22;;;;;;;;;;;25.10;43.80;;;;;;1611049;72;1935;-59
2022/06/12 00:09:24;;;;;;;;;;;25.10;43.80;;;;;;1609375;72;676;-60
2022/06/12 00:11:26;;;;;;;;;;;25.00;43.90;;;;;;1615414;72;663;-59
2022/06/12 00:13:30;;;;;;;;;;;25.00;43.90;;;;;;1617426;72;813;-59
2022/06/12 00:15:32;;;;;;;;;;;25.10;43.90;;;;;;1606005;72;1139;-58
2022/06/12 00:17:33;;;;;;;;;;;25.00;44.00;;;;;;1613131;72;722;-60
2022/06/12 00:19:35;;;;;;;;;;;25.00;44.10;;;;;;1609120;72;770;-60
2022/06/12 00:21:37;;;;;;;;;;;25.00;44.10;;;;;;1610184;72;1403;-57
2022/06/12 00:23:40;;;;;;;;;;;25.00;44.10;;;;;;1594095;72;852;-58
2022/06/12 00:25:42;;;;;;;;;;;25.00;44.10;;;;;;1608633;72;1143;-59
2022/06/12 00:27:44;;;;;;;;;;;25.00;44.10;;;;;;1609811;72;1924;-60
2022/06/12 00:29:47;;;;;;;;;;;25.00;44.10;;;;;;1614856;72;700;-58
2022/06/12 00:31:50;;;;;;;;;;;25.00;44.10;;;;;;1614151;72;733;-59
2022/06/12 00:33:52;;;;;;;;;;;25.00;44.10;;;;;;1612408;72;723;-59
2022/06/12 00:35:54;;;;;;;;;;;25.00;44.10;;;;;;1614345;72;1529;-59
2022/06/12 00:37:56;;;;;;;;;;;25.00;44.00;;;;;;1608430;72;757;-58
2022/06/12 00:39:57;;;;;;;;;;;25.00;44.10;;;;;;1610067;72;769;-58
2022/06/12 00:42:00;;;;;;;;;;;25.10;44.10;;;;;;1617160;72;726;-59
2022/06/12 00:44:02;;;;;;;;;;;25.00;44.10;;;;;;1619344;72;752;-59
2022/06/12 00:46:04;;;;;;;;;;;25.00;44.10;;;;;;1593338;72;1127;-58
2022/06/12 00:48:07;;;;;;;;;;;24.90;44.10;;;;;;1619132;72;1908;-59
2022/06/12 00:50:09;;;;;;;;;;;25.00;44.20;;;;;;1631391;72;1681;-57
2022/06/12 00:52:13;;;;;;;;;;;25.00;44.20;;;;;;1631462;72;801;-57
2022/06/12 00:54:15;;;;;;;;;;;25.00;44.20;;;;;;1605205;72;745;-59
2022/06/12 00:56:18;;;;;;;;;;;25.00;44.20;;;;;;1632358;72;1157;-60
2022/06/12 00:58:21;;;;;;;;;;;25.00;44.20;;;;;;1623022;72;706;-57
2022/06/12 01:00:23;;;;;;;;;;;24.90;44.20;;;;;;1620917;73;774;-59
2022/06/12 01:02:27;;;;;;;;;;;24.90;44.20;;;;;;1620528;72;731;-59
2022/06/12 01:06:49;;;;;;;;;;;24.90;44.20;;;;;;1616828;72;1616;-59
2022/06/12 01:08:51;;;;;;;;;;;25.00;44.20;;;;;;1607333;72;1936;-57
2022/06/12 01:10:54;;;;;;;;;;;25.00;44.20;;;;;;1610910;72;778;-56
2022/06/12 01:12:57;;;;;;;;;;;25.00;44.20;;;;;;1616008;72;717;-59
2022/06/12 01:15:00;;;;;;;;;;;24.90;44.20;;;;;;1611031;72;805;-57
2022/06/12 01:17:02;;;;;;;;;;;25.00;44.20;;;;;;1611926;72;1563;-59
2022/06/12 01:19:05;;;;;;;;;;;25.00;44.30;;;;;;1609871;72;729;-59
2022/06/12 01:21:25;;;;;;;;;;;24.90;44.30;;;;;;1623916;72;727;-59
2022/06/12 01:23:35;;;;;;;;;;;24.90;44.20;;;;;;1608371;72;725;-60
2022/06/12 01:25:57;;;;;;;;;;;25.00;44.20;;;;;;1626856;72;1135;-60
2022/06/12 01:28:00;;;;;;;;;;;25.00;44.20;;;;;;1610745;72;1946;-60
2022/06/12 01:30:04;;;;;;;;;;;25.00;44.20;;;;;;1615396;72;738;-58
2022/06/12 01:32:07;;;;;;;;;;;25.00;44.20;;;;;;1610487;72;1565;-60
2022/06/12 01:34:10;;;;;;;;;;;25.00;44.20;;;;;;1606562;72;734;-58
2022/06/12 01:36:23;;;;;;;;;;;25.00;44.20;;;;;;1617004;72;1133;-58
2022/06/12 01:38:26;;;;;;;;;;;25.00;44.20;;;;;;1593142;73;1765;-56
2022/06/12 01:40:31;;;;;;;;;;;25.00;44.10;;;;;;1623093;72;732;-60
2022/06/12 01:42:37;;;;;;;;;;;24.90;44.20;;;;;;1614413;72;898;-57
2022/06/12 01:44:55;;;;;;;;;;;25.00;44.20;;;;;;1614404;72;757;-60
2022/06/12 01:46:59;;;;;;;;;;;25.00;44.20;;;;;;1603829;72;1120;-57
2022/06/12 01:49:02;;;;;;;;;;;25.00;44.20;;;;;;1609958;72;1913;-60
2022/06/12 01:51:06;;;;;;;;;;;24.90;44.20;;;;;;1609902;72;711;-60
2022/06/12 01:53:15;;;;;;;;;;;25.00;44.20;;;;;;1605345;72;675;-60
2022/06/12 01:55:19;;;;;;;;;;;25.00;44.20;;;;;;1607358;72;711;-60
2022/06/12 01:57:21;;;;;;;;;;;24.90;44.20;;;;;;1613653;72;1946;-57
2022/06/12 01:59:25;;;;;;;;;;;24.90;44.20;;;;;;1616284;72;1525;-60
2022/06/12 02:01:28;;;;;;;;;;;24.90;44.20;;;;;;1612185;72;727;-59
2022/06/12 02:03:48;;;;;;;;;;;24.90;44.10;;;;;;1609748;72;765;-60
2022/06/12 02:05:55;;;;;;;;;;;25.00;44.10;;;;;;1611997;72;1143;-60
2022/06/12 02:07:58;;;;;;;;;;;25.00;44.20;;;;;;1613989;72;1936;-60
2022/06/12 02:10:02;;;;;;;;;;;25.00;44.20;;;;;;1594356;72;1848;-60
2022/06/12 02:14:26;;;;;;;;;;;24.90;44.10;;;;;;1614169;72;1613;-59
2022/06/12 02:16:30;;;;;;;;;;;24.90;44.10;;;;;;1599487;72;1201;-57
2022/06/12 02:18:36;;;;;;;;;;;25.00;44.20;;;;;;1609724;72;781;-60
2022/06/12 02:20:40;;;;;;;;;;;24.90;44.10;;;;;;1606762;72;699;-57
2022/06/12 02:22:43;;;;;;;;;;;24.90;44.10;;;;;;1607925;72;699;-60
2022/06/12 02:24:47;;;;;;;;;;;24.90;44.10;;;;;;1604917;72;772;-58
2022/06/12 02:27:00;;;;;;;;;;;25.00;44.10;;;;;;1597843;72;1136;-59
2022/06/12 02:29:04;;;;;;;;;;;25.00;44.00;;;;;;1613911;72;1902;-59
2022/06/12 02:31:07;;;;;;;;;;;25.00;44.10;;;;;;1608390;72;751;-60
2022/06/12 02:33:11;;;;;;;;;;;25.00;44.10;;;;;;1605475;72;742;-59
2022/06/12 02:35:20;;;;;;;;;;;25.00;44.00;;;;;;1619969;72;1976;-60
2022/06/12 02:37:24;;;;;;;;;;;25.00;44.00;;;;;;1606239;72;1087;-60
2022/06/12 02:39:30;;;;;;;;;;;24.90;44.00;;;;;;1595917;72;651;-60
2022/06/12 02:41:36;;;;;;;;;;;24.90;44.00;;;;;;1613857;72;1811;-58
2022/06/12 02:43:39;;;;;;;;;;;25.00;44.10;;;;;;1612413;72;720;-58
2022/06/12 02:45:55;;;;;;;;;;;25.00;44.10;;;;;;1612512;72;1144;-60
2022/06/12 02:47:57;;;;;;;;;;;25.00;44.10;;;;;;1603858;72;614;-59
2022/06/12 02:49:59;;;;;;;;;;;25.00;44.20;;;;;;1616838;72;735;-58
2022/06/12 02:52:08;;;;;;;;;;;24.90;44.20;;;;;;1619332;72;742;-59
2022/06/12 02:54:12;;;;;;;;;;;25.00;44.30;;;;;;1603002;72;755;-60
2022/06/12 02:56:15;;;;;;;;;;;25.00;44.20;;;;;;1614741;72;1575;-61
2022/06/12 02:58:18;;;;;;;;;;;25.00;44.20;;;;;;1612446;72;767;-58
2022/06/12 03:00:33;;;;;;;;;;;25.00;44.20;;;;;;1610925;72;763;-61
2022/06/12 03:02:43;;;;;;;;;;;25.00;44.10;;;;;;1610163;72;724;-58
2022/06/12 03:04:52;;;;;;;;;;;25.00;44.20;;;;;;1599935;72;1671;-60
2022/06/12 03:06:54;;;;;;;;;;;25.00;44.10;;;;;;1606514;72;1915;-59
2022/06/12 03:08:58;;;;;;;;;;;25.00;44.10;;;;;;1589938;72;1936;-59
2022/06/12 03:11:04;;;;;;;;;;;25.00;44.20;;;;;;1613763;72;1729;-58
2022/06/12 03:13:07;;;;;;;;;;;25.00;44.10;;;;;;1616128;72;730;-61
2022/06/12 03:15:11;;;;;;;;;;;25.00;44.10;;;;;;1616400;72;1175;-57
2022/06/12 03:17:13;;;;;;;;;;;25.00;44.20;;;;;;1594518;72;1188;-59
2022/06/12 03:19:17;;;;;;;;;;;25.00;44.10;;;;;;1616223;72;735;-58
2022/06/12 03:21:33;;;;;;;;;;;24.90;44.10;;;;;;1623808;72;734;-59
2022/06/12 03:23:37;;;;;;;;;;;25.00;44.10;;;;;;1607716;72;1936;-58
2022/06/12 03:25:40;;;;;;;;;;;25.00;44.10;;;;;;1616049;72;1146;-58
2022/06/12 03:27:44;;;;;;;;;;;24.90;44.10;;;;;;1603963;72;1902;-60
2022/06/12 03:29:47;;;;;;;;;;;25.00;44.10;;;;;;1607571;72;1937;-58
2022/06/12 03:31:51;;;;;;;;;;;25.00;44.10;;;;;;1615150;72;749;-60
2022/06/12 03:33:55;;;;;;;;;;;25.00;44.10;;;;;;1610613;72;755;-60
2022/06/12 03:35:59;;;;;;;;;;;24.90;44.10;;;;;;1611655;72;1547;-61
2022/06/12 03:38:05;;;;;;;;;;;25.00;44.10;;;;;;1612549;72;1563;-60
2022/06/12 03:40:11;;;;;;;;;;;24.90;44.20;;;;;;1615118;73;1910;-57
2022/06/12 03:42:21;;;;;;;;;;;24.90;44.20;;;;;;1599526;72;1765;-61
2022/06/12 03:44:24;;;;;;;;;;;25.00;44.10;;;;;;1616389;72;712;-59
2022/06/12 03:46:28;;;;;;;;;;;24.90;44.20;;;;;;1620545;72;1205;-60
2022/06/12 03:48:38;;;;;;;;;;;25.00;44.10;;;;;;1612557;72;1950;-59
2022/06/12 03:50:58;;;;;;;;;;;24.90;44.20;;;;;;1605282;72;695;-60
2022/06/12 03:53:02;;;;;;;;;;;24.90;44.20;;;;;;1610871;72;1532;-57
2022/06/12 03:55:09;;;;;;;;;;;24.90;44.10;;;;;;1617459;72;857;-57
2022/06/12 03:59:39;;;;;;;;;;;24.90;44.10;;;;;;1610867;72;1624;-59
2022/06/12 04:01:41;;;;;;;;;;;24.80;44.10;;;;;;1591598;72;818;-60
2022/06/12 04:03:45;;;;;;;;;;;24.90;44.20;;;;;;1616031;72;945;-58
2022/06/12 04:05:48;;;;;;;;;;;24.90;44.20;;;;;;1620971;72;2175;-58
2022/06/12 04:07:51;;;;;;;;;;;24.80;44.10;;;;;;1611619;72;1964;-60
2022/06/12 04:09:54;;;;;;;;;;;24.80;44.10;;;;;;1613020;72;1928;-57
2022/06/12 04:12:00;;;;;;;;;;;24.80;44.10;;;;;;1592825;72;758;-57
2022/06/12 04:14:02;;;;;;;;;;;24.80;44.20;;;;;;1611026;72;818;-58
2022/06/12 04:16:21;;;;;;;;;;;24.90;44.20;;;;;;1619380;72;1184;-58
2022/06/12 04:18:24;;;;;;;;;;;24.80;44.10;;;;;;1610765;72;712;-60
2022/06/12 04:20:33;;;;;;;;;;;24.80;44.20;;;;;;1619421;72;1542;-58
2022/06/12 04:22:37;;;;;;;;;;;24.80;44.30;;;;;;1609954;72;1908;-58
2022/06/12 04:24:42;;;;;;;;;;;24.80;44.20;;;;;;1621352;72;1759;-60
2022/06/12 04:26:48;;;;;;;;;;;24.80;44.20;;;;;;1618291;72;1114;-59
2022/06/12 04:28:58;;;;;;;;;;;24.80;44.20;;;;;;1614016;72;1938;-60
2022/06/12 04:31:00;;;;;;;;;;;24.80;44.20;;;;;;1603578;72;725;-61
2022/06/12 04:33:04;;;;;;;;;;;24.80;44.20;;;;;;1609450;72;751;-59
2022/06/12 04:35:06;;;;;;;;;;;24.80;44.20;;;;;;1599117;72;1650;-60
2022/06/12 04:37:18;;;;;;;;;;;24.80;44.20;;;;;;1608378;72;1135;-60
2022/06/12 04:39:21;;;;;;;;;;;24.70;44.30;;;;;;1595442;72;804;-60
2022/06/12 04:41:28;;;;;;;;;;;24.70;44.30;;;;;;1615393;72;779;-59
2022/06/12 04:43:29;;;;;;;;;;;24.70;44.40;;;;;;1614018;72;712;-57
2022/06/12 04:45:32;;;;;;;;;;;24.70;44.30;;;;;;1616795;72;1118;-59
2022/06/12 04:47:35;;;;;;;;;;;24.70;44.30;;;;;;1608038;72;1519;-59
2022/06/12 04:49:36;;;;;;;;;;;24.70;44.40;;;;;;1616564;72;1910;-60
2022/06/12 04:51:38;;;;;;;;;;;24.70;44.30;;;;;;1611219;72;717;-58
2022/06/12 04:53:40;;;;;;;;;;;24.70;44.40;;;;;;1595824;72;744;-60
2022/06/12 04:55:42;;;;;;;;;;;24.70;44.40;;;;;;1597705;72;1143;-60
2022/06/12 04:57:44;;;;;;;;;;;24.70;44.40;;;;;;1620092;72;753;-59
2022/06/12 04:59:46;;;;;;;;;;;24.70;44.40;;;;;;1614692;72;769;-60
2022/06/12 05:01:48;;;;;;;;;;;24.70;44.40;;;;;;1613719;72;1526;-60
2022/06/12 05:03:50;;;;;;;;;;;24.80;44.40;;;;;;1612610;72;860;-58
2022/06/12 05:05:52;;;;;;;;;;;24.80;44.30;;;;;;1620621;72;1149;-60
2022/06/12 05:07:54;;;;;;;;;;;24.90;44.40;;;;;;1614443;72;789;-59
2022/06/12 05:09:56;;;;;;;;;;;24.90;44.30;;;;;;1614488;72;1930;-59
2022/06/12 05:11:58;;;;;;;;;;;24.90;44.20;;;;;;1614090;72;811;-56
2022/06/12 05:14:00;;;;;;;;;;;24.90;44.20;;;;;;1615455;72;800;-60
2022/06/12 05:16:02;;;;;;;;;;;24.90;44.20;;;;;;1613028;72;1507;-60
2022/06/12 05:18:03;;;;;;;;;;;24.90;44.20;;;;;;1608110;72;748;-60
2022/06/12 05:20:06;;;;;;;;;;;24.90;44.20;;;;;;1604613;72;828;-59
2022/06/12 05:22:08;;;;;;;;;;;25.00;44.20;;;;;;1619714;72;709;-60
2022/06/12 05:24:10;;;;;;;;;;;25.00;44.10;;;;;;1610485;72;745;-57
2022/06/12 05:26:13;;;;;;;;;;;25.00;44.10;;;;;;1626703;72;1140;-58
2022/06/12 05:28:15;;;;;;;;;;;25.00;44.00;;;;;;1598931;72;753;-57
2022/06/12 05:30:19;;;;;;;;;;;25.10;44.00;;;;;;1615514;72;1952;-58
2022/06/12 05:32:22;;;;;;;;;;;25.10;43.90;;;;;;1612227;72;669;-59
2022/06/12 05:34:25;;;;;;;;;;;25.10;43.80;;;;;;1609628;72;778;-59
2022/06/12 05:36:27;;;;;;;;;;;25.10;43.70;;;;;;1618837;72;1165;-60
2022/06/12 05:38:29;;;;;;;;;;;25.20;43.70;;;;;;1602303;72;773;-60
2022/06/12 05:40:32;;;;;;;;;;;25.20;43.70;;;;;;1609952;72;694;-58
2022/06/12 05:42:33;;;;;;;;;;;25.10;44.10;;;;;;1617317;72;671;-60
2022/06/12 05:44:36;;;;;;;;;;;25.10;44.20;;;;;;1614628;72;1535;-61
2022/06/12 05:46:38;;;;;;;;;;;25.10;44.00;;;;;;1613771;72;1140;-61
2022/06/12 05:48:39;;;;;;;;;;;25.00;44.40;;;;;;1611358;72;791;-61
2022/06/12 05:50:50;;;;;;;;;;;25.00;44.70;;;;;;1608821;72;1922;-60
2022/06/12 05:52:52;;;;;;;;;;;24.90;44.70;;;;;;1604309;72;716;-58
2022/06/12 05:54:54;;;;;;;;;;;24.90;45.00;;;;;;1615476;72;782;-59
2022/06/12 05:56:56;;;;;;;;;;;24.90;45.20;;;;;;1617888;72;1141;-61
2022/06/12 05:58:59;;;;;;;;;;;24.80;45.20;;;;;;1615120;72;1505;-60
2022/06/12 06:01:01;;;;;;;;;;;24.80;45.30;;;;;;1649922;71;695;-59
2022/06/12 06:03:03;;;;;;;;;;;24.80;45.50;;;;;;1628704;72;798;-61
2022/06/12 06:05:06;;;;;;;;;;;24.80;45.50;;;;;;1612447;72;770;-60
2022/06/12 06:07:08;;;;;;;;;;;24.80;45.70;;;;;;1603131;72;1154;-61
2022/06/12 06:09:11;;;;;;;;;;;24.70;46.00;;;;;;1604121;72;1930;-61
2022/06/12 06:11:13;;;;;;;;;;;24.70;45.90;;;;;;1598503;72;814;-61
2022/06/12 06:13:16;;;;;;;;;;;24.70;46.00;;;;;;1620318;72;1536;-58
2022/06/12 06:15:18;;;;;;;;;;;24.70;46.00;;;;;;1614068;72;715;-60
2022/06/12 06:17:20;;;;;;;;;;;24.80;46.00;;;;;;1613507;72;1134;-60
2022/06/12 06:19:22;;;;;;;;;;;24.80;46.00;;;;;;1611267;72;670;-58
2022/06/12 06:21:24;;;;;;;;;;;24.80;46.00;;;;;;1611735;72;871;-60
2022/06/12 06:23:26;;;;;;;;;;;24.70;46.10;;;;;;1612972;72;762;-59
2022/06/12 06:25:28;;;;;;;;;;;24.70;46.20;;;;;;1610320;72;715;-58
2022/06/12 06:27:30;;;;;;;;;;;24.80;46.20;;;;;;1613776;72;1577;-58
2022/06/12 06:29:32;;;;;;;;;;;24.80;45.90;;;;;;1611901;72;1948;-59
2022/06/12 06:31:34;;;;;;;;;;;25.00;45.50;;;;;;1614094;72;728;-59
2022/06/12 06:33:36;;;;;;;;;;;25.20;45.00;;;;;;1611612;72;809;-60
2022/06/12 06:35:38;;;;;;;;;;;25.20;44.60;;;;;;1607941;72;1134;-60
2022/06/12 06:37:40;;;;;;;;;;;25.30;44.40;;;;;;1617929;72;731;-59
2022/06/12 06:39:42;;;;;;;;;;;25.40;44.20;;;;;;1618901;72;791;-59
2022/06/12 06:41:44;;;;;;;;;;;25.40;44.00;;;;;;1613938;72;1675;-61
2022/06/12 06:46:15;;;;;;;;;;;25.30;43.80;;;;;;1609802;72;1597;-60
2022/06/12 06:48:16;;;;;;;;;;;25.40;43.70;;;;;;1611945;72;918;-60
2022/06/12 06:50:19;;;;;;;;;;;25.40;43.60;;;;;;1613376;72;1933;-61
2022/06/12 06:52:21;;;;;;;;;;;25.40;43.60;;;;;;1615063;72;807;-60
2022/06/12 06:54:23;;;;;;;;;;;25.30;43.50;;;;;;1613447;72;1493;-59
2022/06/12 06:56:25;;;;;;;;;;;25.30;43.50;;;;;;1620367;72;1141;-58
2022/06/12 06:58:27;;;;;;;;;;;25.30;43.60;;;;;;1614633;72;806;-58
2022/06/12 07:00:30;;;;;;;;;;;25.20;43.60;;;;;;1616938;72;750;-58
2022/06/12 07:02:32;;;;;;;;;;;25.20;43.70;;;;;;1612937;72;734;-59
2022/06/12 07:04:34;;;;;;;;;;;25.20;43.70;;;;;;1610228;72;730;-59
2022/06/12 07:06:36;;;;;;;;;;;25.10;43.70;;;;;;1615441;72;1153;-58
2022/06/12 07:08:38;;;;;;;;;;;25.10;43.80;;;;;;1627676;72;1524;-60
2022/06/12 07:10:40;;;;;;;;;;;25.20;43.70;;;;;;1613970;72;1934;-60
2022/06/12 07:12:43;;;;;;;;;;;25.20;43.70;;;;;;1613045;72;792;-58
2022/06/12 07:14:45;;;;;;;;;;;25.10;43.60;;;;;;1617286;72;757;-59
2022/06/12 07:16:47;;;;;;;;;;;25.20;43.50;;;;;;1611039;72;1199;-59
2022/06/12 07:18:48;;;;;;;;;;;25.30;43.40;;;;;;1611434;72;614;-59
2022/06/12 07:20:52;;;;;;;;;;;25.20;43.40;;;;;;1605318;72;684;-58
2022/06/12 07:22:54;;;;;;;;;;;25.30;43.40;;;;;;1615702;72;1371;-60
2022/06/12 07:24:56;;;;;;;;;;;25.30;43.40;;;;;;1612327;72;781;-58
2022/06/12 07:26:58;;;;;;;;;;;25.30;43.30;;;;;;1624128;72;1104;-59
2022/06/12 07:29:00;;;;;;;;;;;25.30;43.20;;;;;;1615022;72;770;-61
2022/06/12 07:31:02;;;;;;;;;;;25.40;43.10;;;;;;1621273;72;1924;-59
2022/06/12 07:33:04;;;;;;;;;;;25.40;43.10;;;;;;1614596;72;658;-60
2022/06/12 07:35:06;;;;;;;;;;;25.30;43.10;;;;;;1614519;72;810;-60
2022/06/12 07:37:08;;;;;;;;;;;25.40;43.00;;;;;;1622326;72;1522;-59
2022/06/12 07:39:11;;;;;;;;;;;25.30;43.00;;;;;;1611990;72;772;-59
2022/06/12 07:41:13;;;;;;;;;;;25.30;42.90;;;;;;1619472;72;793;-60
2022/06/12 07:43:15;;;;;;;;;;;25.40;42.90;;;;;;1609332;72;742;-59
2022/06/12 07:45:17;;;;;;;;;;;25.50;42.90;;;;;;1621041;72;792;-57
2022/06/12 07:47:19;;;;;;;;;;;25.40;42.80;;;;;;1618049;72;1100;-57
2022/06/12 07:49:21;;;;;;;;;;;25.40;42.80;;;;;;1603841;72;790;-57
2022/06/12 07:51:23;;;;;;;;;;;25.40;42.80;;;;;;1606085;72;1940;-55
2022/06/12 07:53:25;;;;;;;;;;;25.40;42.80;;;;;;1616558;72;715;-59
2022/06/12 07:55:27;;;;;;;;;;;25.40;42.80;;;;;;1620593;72;681;-59
2022/06/12 07:57:29;;;;;;;;;;;25.40;42.70;;;;;;1620913;72;664;-58
2022/06/12 07:59:31;;;;;;;;;;;25.40;42.80;;;;;;1616506;72;779;-59
2022/06/12 08:01:33;;;;;;;;;;;25.30;42.80;;;;;;1627409;72;728;-58
2022/06/12 08:03:35;;;;;;;;;;;25.40;42.80;;;;;;1614219;72;753;-57
2022/06/12 08:05:36;;;;;;;;;;;25.40;42.80;;;;;;1609536;72;1315;-57
2022/06/12 08:07:38;;;;;;;;;;;25.50;42.80;;;;;;1619532;72;774;-58
2022/06/12 08:09:40;;;;;;;;;;;25.40;42.80;;;;;;1614615;72;784;-58
2022/06/12 08:11:42;;;;;;;;;;;25.40;42.70;;;;;;1624031;72;1928;-56
2022/06/12 08:13:44;;;;;;;;;;;25.40;42.80;;;;;;1624771;72;866;-56
2022/06/12 08:15:47;;;;;;;;;;;25.40;42.80;;;;;;1613954;72;1172;-57
2022/06/12 08:17:49;;;;;;;;;;;25.30;42.80;;;;;;1614351;72;757;-56
2022/06/12 08:22:11;;;;;;;;;;;25.50;42.70;;;;;;1609829;72;2009;-56
2022/06/12 08:24:13;;;;;;;;;;;25.40;42.70;;;;;;1619689;72;700;-58
2022/06/12 08:26:16;;;;;;;;;;;25.40;42.70;;;;;;1615139;72;1175;-56
2022/06/12 08:28:18;;;;;;;;;;;25.40;42.80;;;;;;1592183;72;1044;-58
2022/06/12 08:30:20;;;;;;;;;;;25.40;42.80;;;;;;1611908;72;1940;-56
2022/06/12 08:32:22;;;;;;;;;;;25.40;42.70;;;;;;1611665;72;742;-58
2022/06/12 08:34:25;;;;;;;;;;;25.40;42.60;;;;;;1620514;72;1691;-57
2022/06/12 08:36:27;;;;;;;;;;;25.40;42.60;;;;;;1615796;72;1161;-58
2022/06/12 08:38:29;;;;;;;;;;;25.40;42.60;;;;;;1611260;72;698;-57
2022/06/12 08:40:35;;;;;;;;;;;25.50;42.60;;;;;;1614060;72;758;-57
2022/06/12 08:42:41;;;;;;;;;;;25.50;42.60;;;;;;1616118;72;697;-57
2022/06/12 08:44:44;;;;;;;;;;;25.40;42.60;;;;;;1602101;72;1880;-57
2022/06/12 08:46:49;;;;;;;;;;;25.40;42.60;;;;;;1607574;72;1530;-57
2022/06/12 08:48:52;;;;;;;;;;;25.30;42.30;;;;;;1616147;72;678;-57
2022/06/12 08:51:07;;;;;;;;;;;25.30;42.80;;;;;;1617087;72;1939;-57
2022/06/12 08:53:13;;;;;;;;;;;25.40;42.30;;;;;;1615877;72;760;-56
2022/06/12 08:55:17;;;;;;;;;;;25.30;42.80;;;;;;1610144;72;1836;-56
2022/06/12 08:57:35;;;;;;;;;;;25.40;42.80;;;;;;1626070;72;1102;-58
2022/06/12 08:59:39;;;;;;;;;;;25.30;42.60;;;;;;1614404;72;720;-59
2022/06/12 09:01:44;;;;;;;;;;;25.40;41.70;;;;;;1636637;71;1588;-57
2022/06/12 09:03:51;;;;;;;;;;;25.40;41.70;;;;;;1613465;72;772;-57
2022/06/12 09:06:11;;;;;;;;;;;25.30;41.40;;;;;;1613871;72;1122;-57
2022/06/12 09:08:17;;;;;;;;;;;25.30;41.80;;;;;;1619875;72;773;-58
2022/06/12 09:10:20;;;;;;;;;;;25.30;40.30;;;;;;1624230;72;1936;-58
2022/06/12 09:12:24;;;;;;;;;;;25.30;41.90;;;;;;1624799;72;1003;-56
2022/06/12 09:14:33;;;;;;;;;;;25.30;42.10;;;;;;1616881;72;866;-56
2022/06/12 09:16:45;;;;;;;;;;;25.50;41.80;;;;;;1593598;72;1635;-57
2022/06/12 09:18:58;;;;;;;;;;;25.50;40.40;;;;;;1618339;72;1952;-57
2022/06/12 09:21:07;;;;;;;;;;;25.40;41.50;;;;;;1620187;72;2201;-56
2022/06/12 09:23:25;;;;;;;;;;;25.40;40.30;;;;;;1613939;72;786;-58
2022/06/12 09:25:29;;;;;;;;;;;25.40;39.90;;;;;;1616738;72;681;-59
2022/06/12 09:27:35;;;;;;;;;;;25.50;41.20;;;;;;1623494;71;1947;-57
2022/06/12 09:29:42;;;;;;;;;;;25.50;41.20;;;;;;1621022;72;1537;-58
2022/06/12 09:31:45;;;;;;;;;;;25.50;40.70;;;;;;1615890;72;1936;-59
2022/06/12 09:34:05;;;;;;;;;;;25.50;38.50;;;;;;1611935;72;805;-59
2022/06/12 09:36:09;;;;;;;;;;;25.50;37.60;;;;;;1611366;72;1115;-59
2022/06/12 09:38:24;;;;;;;;;;;25.50;39.00;;;;;;1614774;72;746;-56
2022/06/12 09:40:34;;;;;;;;;;;25.40;37.30;;;;;;1616652;72;716;-58
2022/06/12 09:42:54;;;;;;;;;;;25.30;38.20;;;;;;1614062;72;702;-57
2022/06/12 09:45:00;;;;;;;;;;;25.50;39.40;;;;;;1615231;72;776;-56
2022/06/12 09:47:12;;;;;;;;;;;25.40;38.00;;;;;;1616573;72;1126;-56
2022/06/12 09:49:18;;;;;;;;;;;25.30;39.20;;;;;;1609584;72;733;-59
2022/06/12 09:51:22;;;;;;;;;;;25.40;38.80;;;;;;1615294;72;1931;-57
2022/06/12 09:53:31;;;;;;;;;;;25.40;37.50;;;;;;1618334;72;697;-57
2022/06/12 09:55:35;;;;;;;;;;;25.40;37.70;;;;;;1619373;72;1918;-58
2022/06/12 09:57:51;;;;;;;;;;;25.40;36.80;;;;;;1624474;72;1541;-58
2022/06/12 10:00:00;;;;;;;;;;;25.30;38.00;;;;;;1616354;72;824;-57
2022/06/12 10:02:04;;;;;;;;;;;25.30;38.50;;;;;;1603527;72;752;-58
2022/06/12 10:04:07;;;;;;;;;;;25.40;37.90;;;;;;1614105;72;1947;-58
2022/06/12 10:06:18;;;;;;;;;;;25.40;36.80;;;;;;1601777;72;1498;-56
2022/06/12 10:08:16;;;;;;;;;;;25.40;36.40;;;;;;1619246;72;1563;-56
2022/06/12 10:10:23;;;;;;;;;;;25.30;37.10;;;;;;1611752;72;912;-58
2022/06/12 10:12:29;;;;;;;;;;;25.40;36.80;;;;;;1616683;72;1947;-57
2022/06/12 10:14:33;;;;;;;;;;;25.30;35.80;;;;;;1619250;72;989;-56
2022/06/12 10:16:52;;;;;;;;;;;25.30;37.20;;;;;;1624692;72;1155;-58
2022/06/12 10:18:58;;;;;;;;;;;25.30;36.80;;;;;;1616097;72;777;-57
2022/06/12 10:21:04;;;;;;;;;;;25.40;37.90;;;;;;1605793;72;1021;-56
2022/06/12 10:23:06;;;;;;;;;;;25.50;38.10;;;;;;1611236;72;741;-56
2022/06/12 10:25:08;;;;;;;;;;;25.50;37.60;;;;;;1618848;72;1561;-58
2022/06/12 10:27:11;;;;;;;;;;;25.60;36.20;;;;;;1616435;72;1160;-55
2022/06/12 10:29:14;;;;;;;;;;;25.50;35.80;;;;;;1615709;72;782;-55
2022/06/12 10:31:18;;;;;;;;;;;25.50;36.20;;;;;;1613440;72;1920;-58
2022/06/12 10:33:21;;;;;;;;;;;25.60;37.60;;;;;;1615317;72;742;-56
2022/06/12 10:35:24;;;;;;;;;;;25.70;37.60;;;;;;1613711;72;788;-58
2022/06/12 10:37:28;;;;;;;;;;;25.50;36.90;;;;;;1615961;72;1091;-55
2022/06/12 10:39:32;;;;;;;;;;;25.50;36.10;;;;;;1609908;72;1516;-56
2022/06/12 10:41:33;;;;;;;;;;;25.40;36.00;;;;;;1606515;72;1653;-59
2022/06/12 10:43:39;;;;;;;;;;;25.40;37.20;;;;;;1604552;72;725;-60
2022/06/12 10:45:41;;;;;;;;;;;25.50;37.10;;;;;;1618234;72;1135;-58
2022/06/12 10:47:44;;;;;;;;;;;25.40;37.30;;;;;;1614100;72;726;-59
2022/06/12 10:49:46;;;;;;;;;;;25.50;36.70;;;;;;1614465;72;656;-60
2022/06/12 10:51:48;;;;;;;;;;;25.40;37.20;;;;;;1617537;72;1886;-60
2022/06/12 10:53:51;;;;;;;;;;;25.40;36.60;;;;;;1618075;72;1573;-60
2022/06/12 10:56:01;;;;;;;;;;;25.40;35.60;;;;;;1612792;72;1813;-60
2022/06/12 10:58:13;;;;;;;;;;;25.30;35.60;;;;;;1611967;72;746;-59
2022/06/12 11:00:18;;;;;;;;;;;25.30;36.30;;;;;;1611108;72;1152;-57
2022/06/12 11:02:21;;;;;;;;;;;25.30;36.80;;;;;;1613592;72;770;-58
2022/06/12 11:04:31;;;;;;;;;;;25.30;35.20;;;;;;1607279;72;757;-57
2022/06/12 11:06:50;;;;;;;;;;;25.30;35.50;;;;;;1612334;72;1146;-59
2022/06/12 11:09:02;;;;;;;;;;;25.30;34.70;;;;;;1612203;72;1573;-60
2022/06/12 11:11:12;;;;;;;;;;;25.30;34.60;;;;;;1608073;72;1931;-58
2022/06/12 11:13:16;;;;;;;;;;;25.30;34.40;;;;;;1609906;72;1924;-60
2022/06/12 11:15:19;;;;;;;;;;;25.30;34.00;;;;;;1600969;72;776;-60
2022/06/12 11:17:41;;;;;;;;;;;25.20;33.10;;;;;;1613743;72;1122;-60
2022/06/12 11:19:54;;;;;;;;;;;25.20;34.20;;;;;;1608833;72;789;-60
2022/06/12 11:22:00;;;;;;;;;;;25.30;35.00;;;;;;1617002;72;1551;-58
2022/06/12 11:24:07;;;;;;;;;;;25.20;34.20;;;;;;1610348;72;778;-60
2022/06/12 11:26:19;;;;;;;;;;;25.30;35.40;;;;;;1620962;72;1901;-58
2022/06/12 11:28:28;;;;;;;;;;;25.30;33.80;;;;;;1609890;72;1857;-60
2022/06/12 11:30:35;;;;;;;;;;;25.20;33.20;;;;;;1613861;72;1915;-59
2022/06/12 11:32:44;;;;;;;;;;;25.20;33.10;;;;;;1610923;72;1930;-60
2022/06/12 11:34:57;;;;;;;;;;;25.10;33.10;;;;;;1615053;72;769;-57
2022/06/12 11:37:09;;;;;;;;;;;25.10;34.40;;;;;;1610998;72;2445;-57
2022/06/12 11:39:21;;;;;;;;;;;25.30;34.70;;;;;;1612969;72;1771;-60
2022/06/12 11:41:30;;;;;;;;;;;25.30;35.00;;;;;;1619176;72;715;-57
2022/06/12 11:43:33;;;;;;;;;;;25.30;34.90;;;;;;1612312;72;699;-59
2022/06/12 11:45:39;;;;;;;;;;;25.20;34.90;;;;;;1614070;72;1106;-58
2022/06/12 11:47:47;;;;;;;;;;;25.10;36.10;;;;;;1620365;72;1981;-58
2022/06/12 11:49:58;;;;;;;;;;;25.10;36.10;;;;;;1620970;72;1550;-57
2022/06/12 11:52:04;;;;;;;;;;;25.10;35.50;;;;;;1617925;72;2324;-60
2022/06/12 11:54:27;;;;;;;;;;;25.10;35.80;;;;;;1619816;72;2378;-60
2022/06/12 11:56:28;;;;;;;;;;;25.10;34.90;;;;;;1624487;72;1896;-60
2022/06/12 11:58:43;;;;;;;;;;;25.20;36.00;;;;;;1602375;72;1980;-59
2022/06/12 12:00:51;;;;;;;;;;;25.30;36.10;;;;;;1613847;72;1640;-60
2022/06/12 12:03:13;;;;;;;;;;;25.20;35.30;;;;;;1612657;72;916;-61
2022/06/12 12:05:19;;;;;;;;;;;25.20;35.50;;;;;;1603198;72;1896;-59
2022/06/12 12:07:23;;;;;;;;;;;25.20;35.70;;;;;;1612373;72;2305;-59
2022/06/12 12:09:38;;;;;;;;;;;25.20;34.60;;;;;;1613599;72;1257;-59
2022/06/12 12:11:42;;;;;;;;;;;25.20;35.40;;;;;;1613846;72;1962;-60
2022/06/12 12:13:45;;;;;;;;;;;25.20;34.90;;;;;;1612180;72;1808;-60
2022/06/12 12:15:49;;;;;;;;;;;25.20;35.60;;;;;;1615142;72;1117;-57
2022/06/12 12:17:51;;;;;;;;;;;25.10;34.20;;;;;;1609298;72;1525;-59
2022/06/12 12:19:55;;;;;;;;;;;25.20;35.10;;;;;;1609833;72;796;-59
2022/06/12 12:21:57;;;;;;;;;;;25.10;35.30;;;;;;1613135;72;731;-57
2022/06/12 12:23:59;;;;;;;;;;;25.20;35.70;;;;;;1613878;72;723;-58
2022/06/12 12:26:02;;;;;;;;;;;25.30;35.60;;;;;;1613933;72;1190;-60
2022/06/12 12:28:22;;;;;;;;;;;25.30;35.30;;;;;;1608561;72;788;-60
2022/06/12 12:30:25;;;;;;;;;;;25.30;35.50;;;;;;1608958;72;771;-60
2022/06/12 12:32:28;;;;;;;;;;;25.30;35.10;;;;;;1616621;72;1944;-61
2022/06/12 12:34:30;;;;;;;;;;;25.30;34.00;;;;;;1612849;72;674;-61